KMSY

Louis Armstrong New Orleans International Airport

New Orleans, Louisiana, USA
METAR KMSY 201553Z 19007KT 160V240 10SM SCT026 SCT150 BKN250 32/26 A3006 RMK AO2 SLP181 CB DSNT N AND NE AND SW T03170261
Observed Flight Rules
Aug-20 @ 15:53 UTC (31 minutes ago) Visual Flight Rules
Wind Visibility Clouds
190° at 7 knots 10 miles
  • Scattered at 2,600' AGL
  • Scattered at 15,000' AGL
  • Broken at 25,000' AGL
Temperatures Readings
Current 32°C / 90°F
Dewpoint 26°C / 79°F
Humidity 71%
Altimeter 30.06" Hg
Pressure 1018.1 hPa
Elevation 5
METAR KMSY 201553Z 19007KT 160V240 10SM SCT026 SCT150 BKN250 32/26 A3006 RMK AO2 SLP181 CB DSNT N AND NE AND SW T03170261
Observed Flight Rules
Aug-20 @ 15:53 UTC
(31 minutes ago)
VFR
Wind Visibility
190° at 7 knots 10 miles
Clouds
  • Scattered at 2,600' AGL
  • Scattered at 15,000' AGL
  • Broken at 25,000' AGL
Temperature Dewpoint
32°C / 90°F 26°C / 79°F
Humidity Altimeter Pressure
71% 30.06" Hg 1018.1 hPa